Terminal Aerodrome Forecast
Issued by NWS Pocatello, ID

Home | Current Version | Previous Version | Text Only | Print | Product List | Glossary On
Versions: 1 2 3 4 5 6 7 8 9 10 11 12 13 14 15 16 17 18 19 20 21 22 23 24
895
FTUS45 KPIH 110520
TAFPIH
TAF
KPIH 110520Z 1106/1206 VRB04KT 6SM BR FEW002 SCT015 BKN100
     FM111300 13007KT 4SM BR SCT002 SCT015 BKN100
     FM111800 VRB05KT 6SM BR FEW004 SCT080 SCT120
     FM112200 VRB05KT P6SM FEW008 BKN120 BKN160=

USA.gov is the U.S. government's official web portal to all federal, state and local government web resources and services.